sensor_id;sensor_type;location;lat;lon;timestamp;P1;durP1;ratioP1;P2;durP2;ratioP2
37483;SDS011;23337;52.212;9.926;2023-12-20T00:01:50;4.50;;;4.03;;
37483;SDS011;23337;52.212;9.926;2023-12-20T00:04:16;4.03;;;3.63;;
37483;SDS011;23337;52.212;9.926;2023-12-20T00:06:42;4.40;;;4.00;;
37483;SDS011;23337;52.212;9.926;2023-12-20T00:09:09;4.10;;;3.80;;
37483;SDS011;23337;52.212;9.926;2023-12-20T00:11:34;4.07;;;3.67;;
37483;SDS011;23337;52.212;9.926;2023-12-20T00:14:00;4.53;;;4.13;;
37483;SDS011;23337;52.212;9.926;2023-12-20T00:16:26;4.37;;;3.97;;
37483;SDS011;23337;52.212;9.926;2023-12-20T00:18:52;4.20;;;3.80;;
37483;SDS011;23337;52.212;9.926;2023-12-20T00:21:18;4.07;;;3.77;;
37483;SDS011;23337;52.212;9.926;2023-12-20T00:23:44;4.03;;;3.63;;
37483;SDS011;23337;52.212;9.926;2023-12-20T00:26:10;5.47;;;3.20;;
37483;SDS011;23337;52.212;9.926;2023-12-20T00:28:36;4.70;;;3.97;;
37483;SDS011;23337;52.212;9.926;2023-12-20T00:31:02;4.00;;;3.60;;
37483;SDS011;23337;52.212;9.926;2023-12-20T00:33:29;4.13;;;3.67;;
37483;SDS011;23337;52.212;9.926;2023-12-20T00:35:55;5.07;;;4.53;;
37483;SDS011;23337;52.212;9.926;2023-12-20T00:38:21;5.73;;;4.57;;
37483;SDS011;23337;52.212;9.926;2023-12-20T00:40:47;6.87;;;5.37;;
37483;SDS011;23337;52.212;9.926;2023-12-20T00:43:14;5.90;;;5.17;;
37483;SDS011;23337;52.212;9.926;2023-12-20T00:45:40;5.73;;;4.80;;
37483;SDS011;23337;52.212;9.926;2023-12-20T00:48:06;6.17;;;5.23;;
37483;SDS011;23337;52.212;9.926;2023-12-20T00:50:32;6.67;;;4.40;;
37483;SDS011;23337;52.212;9.926;2023-12-20T00:52:58;6.57;;;3.97;;
37483;SDS011;23337;52.212;9.926;2023-12-20T00:55:24;5.80;;;4.20;;
37483;SDS011;23337;52.212;9.926;2023-12-20T00:57:50;7.90;;;4.10;;
37483;SDS011;23337;52.212;9.926;2023-12-20T01:00:17;7.20;;;3.67;;
37483;SDS011;23337;52.212;9.926;2023-12-20T01:02:43;7.50;;;4.20;;
37483;SDS011;23337;52.212;9.926;2023-12-20T01:05:11;7.43;;;3.70;;
37483;SDS011;23337;52.212;9.926;2023-12-20T01:07:37;5.50;;;3.47;;
37483;SDS011;23337;52.212;9.926;2023-12-20T01:10:03;4.83;;;3.30;;
37483;SDS011;23337;52.212;9.926;2023-12-20T01:12:29;5.33;;;3.63;;
37483;SDS011;23337;52.212;9.926;2023-12-20T01:14:55;6.53;;;3.70;;
37483;SDS011;23337;52.212;9.926;2023-12-20T01:17:22;9.90;;;4.33;;
37483;SDS011;23337;52.212;9.926;2023-12-20T01:19:48;7.47;;;3.53;;
37483;SDS011;23337;52.212;9.926;2023-12-20T01:22:14;5.80;;;2.93;;
37483;SDS011;23337;52.212;9.926;2023-12-20T01:24:40;8.10;;;3.17;;
37483;SDS011;23337;52.212;9.926;2023-12-20T01:27:07;8.37;;;3.37;;
37483;SDS011;23337;52.212;9.926;2023-12-20T01:29:33;6.60;;;2.93;;
37483;SDS011;23337;52.212;9.926;2023-12-20T01:31:59;9.07;;;2.70;;
37483;SDS011;23337;52.212;9.926;2023-12-20T01:34:25;7.97;;;2.33;;
37483;SDS011;23337;52.212;9.926;2023-12-20T01:36:51;3.93;;;2.30;;
37483;SDS011;23337;52.212;9.926;2023-12-20T01:39:17;9.23;;;1.60;;
37483;SDS011;23337;52.212;9.926;2023-12-20T01:41:43;6.73;;;2.17;;
37483;SDS011;23337;52.212;9.926;2023-12-20T01:44:10;5.83;;;1.43;;
37483;SDS011;23337;52.212;9.926;2023-12-20T01:46:36;4.27;;;1.10;;
37483;SDS011;23337;52.212;9.926;2023-12-20T01:49:02;5.00;;;1.40;;
37483;SDS011;23337;52.212;9.926;2023-12-20T01:51:28;6.30;;;1.30;;
37483;SDS011;23337;52.212;9.926;2023-12-20T01:53:55;6.40;;;1.13;;
37483;SDS011;23337;52.212;9.926;2023-12-20T01:56:21;7.00;;;1.53;;
37483;SDS011;23337;52.212;9.926;2023-12-20T01:58:47;10.40;;;1.43;;
37483;SDS011;23337;52.212;9.926;2023-12-20T02:01:13;7.83;;;1.43;;
37483;SDS011;23337;52.212;9.926;2023-12-20T02:03:41;4.10;;;1.63;;
37483;SDS011;23337;52.212;9.926;2023-12-20T02:06:08;8.13;;;1.93;;
37483;SDS011;23337;52.212;9.926;2023-12-20T02:08:34;6.97;;;1.23;;
37483;SDS011;23337;52.212;9.926;2023-12-20T02:11:00;8.00;;;1.50;;
37483;SDS011;23337;52.212;9.926;2023-12-20T02:13:26;8.97;;;1.80;;
37483;SDS011;23337;52.212;9.926;2023-12-20T02:15:52;8.47;;;1.17;;
37483;SDS011;23337;52.212;9.926;2023-12-20T02:18:18;5.97;;;1.20;;
37483;SDS011;23337;52.212;9.926;2023-12-20T02:20:44;5.13;;;1.07;;
37483;SDS011;23337;52.212;9.926;2023-12-20T02:23:10;4.73;;;1.13;;
37483;SDS011;23337;52.212;9.926;2023-12-20T02:25:36;6.90;;;1.10;;
37483;SDS011;23337;52.212;9.926;2023-12-20T02:28:02;5.67;;;2.07;;
37483;SDS011;23337;52.212;9.926;2023-12-20T02:30:29;4.87;;;0.90;;
37483;SDS011;23337;52.212;9.926;2023-12-20T02:32:55;5.53;;;1.20;;
37483;SDS011;23337;52.212;9.926;2023-12-20T02:35:21;3.70;;;1.13;;
37483;SDS011;23337;52.212;9.926;2023-12-20T02:37:47;6.57;;;1.33;;
37483;SDS011;23337;52.212;9.926;2023-12-20T02:40:13;1.77;;;0.57;;
37483;SDS011;23337;52.212;9.926;2023-12-20T02:42:39;6.70;;;1.57;;
37483;SDS011;23337;52.212;9.926;2023-12-20T02:45:05;11.33;;;1.43;;
37483;SDS011;23337;52.212;9.926;2023-12-20T02:47:31;7.90;;;1.40;;
37483;SDS011;23337;52.212;9.926;2023-12-20T02:49:57;4.53;;;1.60;;
37483;SDS011;23337;52.212;9.926;2023-12-20T02:52:23;5.50;;;0.80;;
37483;SDS011;23337;52.212;9.926;2023-12-20T02:54:49;3.53;;;1.40;;
37483;SDS011;23337;52.212;9.926;2023-12-20T02:57:15;2.87;;;0.87;;
37483;SDS011;23337;52.212;9.926;2023-12-20T02:59:41;5.53;;;1.00;;
37483;SDS011;23337;52.212;9.926;2023-12-20T03:02:07;7.80;;;1.20;;
37483;SDS011;23337;52.212;9.926;2023-12-20T03:04:33;6.90;;;1.47;;
37483;SDS011;23337;52.212;9.926;2023-12-20T03:06:59;5.50;;;1.07;;
37483;SDS011;23337;52.212;9.926;2023-12-20T03:09:25;6.30;;;1.17;;
37483;SDS011;23337;52.212;9.926;2023-12-20T03:11:51;4.63;;;0.90;;
37483;SDS011;23337;52.212;9.926;2023-12-20T03:14:17;4.77;;;0.90;;
37483;SDS011;23337;52.212;9.926;2023-12-20T03:16:46;4.33;;;1.10;;
37483;SDS011;23337;52.212;9.926;2023-12-20T03:19:12;4.07;;;0.70;;
37483;SDS011;23337;52.212;9.926;2023-12-20T03:21:38;6.33;;;1.13;;
37483;SDS011;23337;52.212;9.926;2023-12-20T03:24:04;6.13;;;1.00;;
37483;SDS011;23337;52.212;9.926;2023-12-20T03:26:30;5.37;;;1.10;;
37483;SDS011;23337;52.212;9.926;2023-12-20T03:28:56;4.30;;;1.07;;
37483;SDS011;23337;52.212;9.926;2023-12-20T03:31:22;7.77;;;2.13;;
37483;SDS011;23337;52.212;9.926;2023-12-20T03:33:48;4.83;;;1.17;;
37483;SDS011;23337;52.212;9.926;2023-12-20T03:36:15;4.33;;;1.20;;
37483;SDS011;23337;52.212;9.926;2023-12-20T03:38:41;5.27;;;1.00;;
37483;SDS011;23337;52.212;9.926;2023-12-20T03:41:07;3.23;;;0.80;;
37483;SDS011;23337;52.212;9.926;2023-12-20T03:43:33;6.47;;;1.17;;
37483;SDS011;23337;52.212;9.926;2023-12-20T03:45:59;6.57;;;1.20;;
37483;SDS011;23337;52.212;9.926;2023-12-20T03:48:25;4.03;;;1.20;;
37483;SDS011;23337;52.212;9.926;2023-12-20T03:50:51;5.80;;;1.30;;
37483;SDS011;23337;52.212;9.926;2023-12-20T03:53:17;3.47;;;1.37;;
37483;SDS011;23337;52.212;9.926;2023-12-20T03:55:43;5.17;;;1.67;;
37483;SDS011;23337;52.212;9.926;2023-12-20T03:58:09;7.57;;;1.50;;
37483;SDS011;23337;52.212;9.926;2023-12-20T04:00:35;4.10;;;1.10;;
37483;SDS011;23337;52.212;9.926;2023-12-20T04:03:01;5.43;;;1.50;;
37483;SDS011;23337;52.212;9.926;2023-12-20T04:05:27;3.90;;;0.93;;
37483;SDS011;23337;52.212;9.926;2023-12-20T04:07:53;3.40;;;1.13;;
37483;SDS011;23337;52.212;9.926;2023-12-20T04:10:19;3.80;;;1.37;;
37483;SDS011;23337;52.212;9.926;2023-12-20T04:12:45;5.63;;;1.10;;
37483;SDS011;23337;52.212;9.926;2023-12-20T04:15:10;8.43;;;1.20;;
37483;SDS011;23337;52.212;9.926;2023-12-20T04:17:37;4.43;;;0.93;;
37483;SDS011;23337;52.212;9.926;2023-12-20T04:20:03;5.10;;;1.07;;
37483;SDS011;23337;52.212;9.926;2023-12-20T04:22:29;7.20;;;1.50;;
37483;SDS011;23337;52.212;9.926;2023-12-20T04:24:55;8.17;;;1.00;;
37483;SDS011;23337;52.212;9.926;2023-12-20T04:27:21;2.60;;;1.07;;
37483;SDS011;23337;52.212;9.926;2023-12-20T04:29:47;5.63;;;1.10;;
37483;SDS011;23337;52.212;9.926;2023-12-20T04:32:12;5.67;;;2.07;;
37483;SDS011;23337;52.212;9.926;2023-12-20T04:34:38;5.10;;;1.03;;
37483;SDS011;23337;52.212;9.926;2023-12-20T04:37:04;5.83;;;1.67;;
37483;SDS011;23337;52.212;9.926;2023-12-20T04:39:30;7.03;;;1.17;;
37483;SDS011;23337;52.212;9.926;2023-12-20T04:41:56;9.43;;;2.00;;
37483;SDS011;23337;52.212;9.926;2023-12-20T04:44:22;4.97;;;1.50;;
37483;SDS011;23337;52.212;9.926;2023-12-20T04:46:48;4.07;;;1.10;;
37483;SDS011;23337;52.212;9.926;2023-12-20T04:49:14;5.50;;;1.43;;
37483;SDS011;23337;52.212;9.926;2023-12-20T04:51:40;6.67;;;1.43;;
37483;SDS011;23337;52.212;9.926;2023-12-20T04:54:06;4.90;;;1.00;;
37483;SDS011;23337;52.212;9.926;2023-12-20T04:56:32;3.53;;;1.80;;
37483;SDS011;23337;52.212;9.926;2023-12-20T04:58:58;6.90;;;1.40;;
37483;SDS011;23337;52.212;9.926;2023-12-20T05:01:24;7.00;;;1.93;;
37483;SDS011;23337;52.212;9.926;2023-12-20T05:03:50;6.23;;;1.70;;
37483;SDS011;23337;52.212;9.926;2023-12-20T05:06:16;5.83;;;1.50;;
37483;SDS011;23337;52.212;9.926;2023-12-20T05:08:42;8.40;;;1.93;;
37483;SDS011;23337;52.212;9.926;2023-12-20T05:11:08;6.40;;;1.30;;
37483;SDS011;23337;52.212;9.926;2023-12-20T05:13:34;6.87;;;2.27;;
37483;SDS011;23337;52.212;9.926;2023-12-20T05:16:00;7.37;;;1.53;;
37483;SDS011;23337;52.212;9.926;2023-12-20T05:18:26;6.30;;;1.77;;
37483;SDS011;23337;52.212;9.926;2023-12-20T05:20:52;8.93;;;1.60;;
37483;SDS011;23337;52.212;9.926;2023-12-20T05:23:18;5.43;;;2.00;;
37483;SDS011;23337;52.212;9.926;2023-12-20T05:25:45;7.73;;;2.10;;
37483;SDS011;23337;52.212;9.926;2023-12-20T05:28:11;9.53;;;1.47;;
37483;SDS011;23337;52.212;9.926;2023-12-20T05:30:37;10.93;;;2.10;;
37483;SDS011;23337;52.212;9.926;2023-12-20T05:33:03;9.00;;;2.47;;
37483;SDS011;23337;52.212;9.926;2023-12-20T05:35:29;10.83;;;1.87;;
37483;SDS011;23337;52.212;9.926;2023-12-20T05:37:55;8.93;;;2.07;;
37483;SDS011;23337;52.212;9.926;2023-12-20T05:40:21;9.60;;;3.63;;
37483;SDS011;23337;52.212;9.926;2023-12-20T05:42:47;7.10;;;2.60;;
37483;SDS011;23337;52.212;9.926;2023-12-20T05:45:14;6.70;;;1.93;;
37483;SDS011;23337;52.212;9.926;2023-12-20T05:47:40;6.50;;;1.97;;
37483;SDS011;23337;52.212;9.926;2023-12-20T05:50:06;10.67;;;2.93;;
37483;SDS011;23337;52.212;9.926;2023-12-20T05:52:32;6.13;;;2.07;;
37483;SDS011;23337;52.212;9.926;2023-12-20T05:54:58;8.40;;;2.07;;
37483;SDS011;23337;52.212;9.926;2023-12-20T05:57:26;10.03;;;2.27;;
37483;SDS011;23337;52.212;9.926;2023-12-20T05:59:52;6.07;;;2.13;;
37483;SDS011;23337;52.212;9.926;2023-12-20T06:02:18;7.73;;;1.77;;
37483;SDS011;23337;52.212;9.926;2023-12-20T06:04:44;11.47;;;4.03;;
37483;SDS011;23337;52.212;9.926;2023-12-20T06:07:14;12.23;;;2.53;;
37483;SDS011;23337;52.212;9.926;2023-12-20T06:09:40;7.87;;;2.37;;
37483;SDS011;23337;52.212;9.926;2023-12-20T06:12:06;6.57;;;2.20;;
37483;SDS011;23337;52.212;9.926;2023-12-20T06:14:33;7.10;;;1.77;;
37483;SDS011;23337;52.212;9.926;2023-12-20T06:16:59;9.03;;;2.03;;
37483;SDS011;23337;52.212;9.926;2023-12-20T06:19:26;6.67;;;2.20;;
37483;SDS011;23337;52.212;9.926;2023-12-20T06:21:52;5.57;;;2.43;;
37483;SDS011;23337;52.212;9.926;2023-12-20T06:24:17;8.60;;;1.70;;
37483;SDS011;23337;52.212;9.926;2023-12-20T06:26:43;12.30;;;2.57;;
37483;SDS011;23337;52.212;9.926;2023-12-20T06:29:09;8.27;;;2.27;;
37483;SDS011;23337;52.212;9.926;2023-12-20T06:31:35;11.33;;;2.73;;
37483;SDS011;23337;52.212;9.926;2023-12-20T06:34:01;10.00;;;2.83;;
37483;SDS011;23337;52.212;9.926;2023-12-20T06:36:28;7.70;;;2.40;;
37483;SDS011;23337;52.212;9.926;2023-12-20T06:38:54;12.60;;;2.97;;
37483;SDS011;23337;52.212;9.926;2023-12-20T06:41:20;10.37;;;2.73;;
37483;SDS011;23337;52.212;9.926;2023-12-20T06:43:46;10.93;;;3.03;;
37483;SDS011;23337;52.212;9.926;2023-12-20T06:46:12;7.90;;;2.23;;
37483;SDS011;23337;52.212;9.926;2023-12-20T06:48:41;6.67;;;1.77;;
37483;SDS011;23337;52.212;9.926;2023-12-20T06:51:10;13.00;;;3.10;;
37483;SDS011;23337;52.212;9.926;2023-12-20T06:53:36;10.50;;;2.17;;
37483;SDS011;23337;52.212;9.926;2023-12-20T06:56:02;6.57;;;2.30;;
37483;SDS011;23337;52.212;9.926;2023-12-20T06:58:28;4.27;;;1.90;;
37483;SDS011;23337;52.212;9.926;2023-12-20T07:00:54;10.33;;;2.37;;
37483;SDS011;23337;52.212;9.926;2023-12-20T07:03:20;10.97;;;2.33;;
37483;SDS011;23337;52.212;9.926;2023-12-20T07:05:46;6.87;;;1.90;;
37483;SDS011;23337;52.212;9.926;2023-12-20T07:08:12;8.43;;;2.20;;
37483;SDS011;23337;52.212;9.926;2023-12-20T07:10:39;8.40;;;2.43;;
37483;SDS011;23337;52.212;9.926;2023-12-20T07:13:05;8.87;;;3.17;;
37483;SDS011;23337;52.212;9.926;2023-12-20T07:15:31;9.80;;;2.30;;
37483;SDS011;23337;52.212;9.926;2023-12-20T07:17:57;9.40;;;3.07;;
37483;SDS011;23337;52.212;9.926;2023-12-20T07:20:25;8.67;;;2.63;;
37483;SDS011;23337;52.212;9.926;2023-12-20T07:22:51;12.47;;;2.57;;
37483;SDS011;23337;52.212;9.926;2023-12-20T07:25:17;12.20;;;3.23;;
37483;SDS011;23337;52.212;9.926;2023-12-20T07:27:43;10.77;;;2.77;;
37483;SDS011;23337;52.212;9.926;2023-12-20T07:30:09;9.20;;;2.43;;
37483;SDS011;23337;52.212;9.926;2023-12-20T07:32:35;9.00;;;2.17;;
37483;SDS011;23337;52.212;9.926;2023-12-20T07:35:01;11.83;;;2.30;;
37483;SDS011;23337;52.212;9.926;2023-12-20T07:37:28;11.13;;;2.60;;
37483;SDS011;23337;52.212;9.926;2023-12-20T07:39:53;15.10;;;3.27;;
37483;SDS011;23337;52.212;9.926;2023-12-20T07:42:19;11.80;;;2.00;;
37483;SDS011;23337;52.212;9.926;2023-12-20T07:44:47;10.43;;;3.20;;
37483;SDS011;23337;52.212;9.926;2023-12-20T07:47:13;9.30;;;3.47;;
37483;SDS011;23337;52.212;9.926;2023-12-20T07:49:42;7.77;;;2.67;;
37483;SDS011;23337;52.212;9.926;2023-12-20T07:52:08;12.20;;;2.67;;
37483;SDS011;23337;52.212;9.926;2023-12-20T07:54:34;9.10;;;3.37;;
37483;SDS011;23337;52.212;9.926;2023-12-20T07:57:00;11.33;;;2.27;;
37483;SDS011;23337;52.212;9.926;2023-12-20T07:59:26;13.87;;;3.00;;
37483;SDS011;23337;52.212;9.926;2023-12-20T08:01:52;9.53;;;3.40;;
37483;SDS011;23337;52.212;9.926;2023-12-20T08:04:17;11.83;;;2.33;;
37483;SDS011;23337;52.212;9.926;2023-12-20T08:06:43;8.37;;;3.40;;
37483;SDS011;23337;52.212;9.926;2023-12-20T08:09:09;9.53;;;2.60;;
37483;SDS011;23337;52.212;9.926;2023-12-20T08:11:35;8.63;;;2.80;;
37483;SDS011;23337;52.212;9.926;2023-12-20T08:14:01;8.83;;;2.20;;
37483;SDS011;23337;52.212;9.926;2023-12-20T08:16:27;11.63;;;4.27;;
37483;SDS011;23337;52.212;9.926;2023-12-20T08:18:53;9.20;;;2.97;;
37483;SDS011;23337;52.212;9.926;2023-12-20T08:21:19;8.67;;;3.27;;
37483;SDS011;23337;52.212;9.926;2023-12-20T08:23:47;12.13;;;3.00;;
37483;SDS011;23337;52.212;9.926;2023-12-20T08:26:13;11.00;;;3.57;;
37483;SDS011;23337;52.212;9.926;2023-12-20T08:28:39;8.23;;;2.80;;
37483;SDS011;23337;52.212;9.926;2023-12-20T08:31:05;11.00;;;3.67;;
37483;SDS011;23337;52.212;9.926;2023-12-20T08:33:31;12.03;;;3.57;;
37483;SDS011;23337;52.212;9.926;2023-12-20T08:35:56;10.90;;;3.30;;
37483;SDS011;23337;52.212;9.926;2023-12-20T08:38:23;9.67;;;3.57;;
37483;SDS011;23337;52.212;9.926;2023-12-20T08:40:49;10.37;;;3.97;;
37483;SDS011;23337;52.212;9.926;2023-12-20T08:43:15;11.67;;;5.43;;
37483;SDS011;23337;52.212;9.926;2023-12-20T08:45:40;8.80;;;3.03;;
37483;SDS011;23337;52.212;9.926;2023-12-20T08:48:06;10.97;;;3.27;;
37483;SDS011;23337;52.212;9.926;2023-12-20T08:50:32;9.43;;;3.53;;
37483;SDS011;23337;52.212;9.926;2023-12-20T08:52:58;13.13;;;4.17;;
37483;SDS011;23337;52.212;9.926;2023-12-20T08:55:24;6.27;;;3.97;;
37483;SDS011;23337;52.212;9.926;2023-12-20T08:57:51;7.77;;;3.33;;
37483;SDS011;23337;52.212;9.926;2023-12-20T09:00:17;8.60;;;3.50;;
37483;SDS011;23337;52.212;9.926;2023-12-20T09:02:45;9.23;;;3.10;;
37483;SDS011;23337;52.212;9.926;2023-12-20T09:05:11;8.97;;;3.10;;
37483;SDS011;23337;52.212;9.926;2023-12-20T09:07:37;9.30;;;3.23;;
37483;SDS011;23337;52.212;9.926;2023-12-20T09:10:03;8.53;;;2.90;;
37483;SDS011;23337;52.212;9.926;2023-12-20T09:12:29;12.50;;;3.20;;
37483;SDS011;23337;52.212;9.926;2023-12-20T09:14:55;8.57;;;2.83;;
37483;SDS011;23337;52.212;9.926;2023-12-20T09:17:21;7.83;;;2.40;;
37483;SDS011;23337;52.212;9.926;2023-12-20T09:19:48;10.50;;;3.47;;
37483;SDS011;23337;52.212;9.926;2023-12-20T09:22:14;9.40;;;3.03;;
37483;SDS011;23337;52.212;9.926;2023-12-20T09:24:40;10.03;;;3.23;;
37483;SDS011;23337;52.212;9.926;2023-12-20T09:27:06;12.30;;;2.77;;
37483;SDS011;23337;52.212;9.926;2023-12-20T09:29:32;6.40;;;2.60;;
37483;SDS011;23337;52.212;9.926;2023-12-20T09:31:58;7.83;;;2.43;;
37483;SDS011;23337;52.212;9.926;2023-12-20T09:34:24;11.57;;;3.22;;
37483;SDS011;23337;52.212;9.926;2023-12-20T09:36:50;11.20;;;2.87;;
37483;SDS011;23337;52.212;9.926;2023-12-20T09:39:17;13.43;;;3.70;;
37483;SDS011;23337;52.212;9.926;2023-12-20T09:44:28;11.83;;;2.93;;
37483;SDS011;23337;52.212;9.926;2023-12-20T09:46:54;6.27;;;2.60;;
37483;SDS011;23337;52.212;9.926;2023-12-20T09:49:20;9.03;;;2.07;;
37483;SDS011;23337;52.212;9.926;2023-12-20T09:51:47;11.03;;;3.20;;
37483;SDS011;23337;52.212;9.926;2023-12-20T09:54:16;8.77;;;2.63;;
37483;SDS011;23337;52.212;9.926;2023-12-20T09:56:43;19.33;;;2.97;;
37483;SDS011;23337;52.212;9.926;2023-12-20T09:59:09;11.30;;;3.10;;
37483;SDS011;23337;52.212;9.926;2023-12-20T10:01:36;12.37;;;3.17;;
37483;SDS011;23337;52.212;9.926;2023-12-20T10:04:05;7.80;;;2.67;;
37483;SDS011;23337;52.212;9.926;2023-12-20T10:06:33;7.50;;;2.83;;
37483;SDS011;23337;52.212;9.926;2023-12-20T10:08:59;10.80;;;2.60;;
37483;SDS011;23337;52.212;9.926;2023-12-20T10:11:25;7.83;;;2.67;;
37483;SDS011;23337;52.212;9.926;2023-12-20T10:13:52;8.13;;;2.57;;
37483;SDS011;23337;52.212;9.926;2023-12-20T10:16:25;7.07;;;2.37;;
37483;SDS011;23337;52.212;9.926;2023-12-20T10:18:52;9.23;;;2.50;;
37483;SDS011;23337;52.212;9.926;2023-12-20T10:21:18;11.53;;;2.70;;
37483;SDS011;23337;52.212;9.926;2023-12-20T10:23:44;9.57;;;3.27;;
37483;SDS011;23337;52.212;9.926;2023-12-20T10:26:18;8.57;;;3.20;;
37483;SDS011;23337;52.212;9.926;2023-12-20T10:28:45;10.53;;;2.90;;
37483;SDS011;23337;52.212;9.926;2023-12-20T10:31:18;11.73;;;4.00;;
37483;SDS011;23337;52.212;9.926;2023-12-20T10:33:51;7.63;;;3.90;;
37483;SDS011;23337;52.212;9.926;2023-12-20T10:36:17;8.60;;;3.50;;
37483;SDS011;23337;52.212;9.926;2023-12-20T10:38:43;9.17;;;4.10;;
37483;SDS011;23337;52.212;9.926;2023-12-20T10:41:09;7.43;;;3.33;;
37483;SDS011;23337;52.212;9.926;2023-12-20T10:43:36;10.67;;;4.07;;
37483;SDS011;23337;52.212;9.926;2023-12-20T10:46:03;7.97;;;3.70;;
37483;SDS011;23337;52.212;9.926;2023-12-20T10:48:29;6.70;;;3.80;;
37483;SDS011;23337;52.212;9.926;2023-12-20T10:50:56;9.03;;;3.53;;
37483;SDS011;23337;52.212;9.926;2023-12-20T10:53:23;10.80;;;4.73;;
37483;SDS011;23337;52.212;9.926;2023-12-20T10:55:50;11.13;;;4.90;;
37483;SDS011;23337;52.212;9.926;2023-12-20T10:58:18;10.53;;;3.97;;
37483;SDS011;23337;52.212;9.926;2023-12-20T11:00:46;7.50;;;3.63;;
37483;SDS011;23337;52.212;9.926;2023-12-20T11:03:13;10.00;;;4.03;;
37483;SDS011;23337;52.212;9.926;2023-12-20T11:05:48;8.63;;;4.57;;
37483;SDS011;23337;52.212;9.926;2023-12-20T11:08:32;6.73;;;4.20;;
37483;SDS011;23337;52.212;9.926;2023-12-20T11:11:00;11.47;;;4.13;;
37483;SDS011;23337;52.212;9.926;2023-12-20T11:13:34;6.73;;;4.47;;
37483;SDS011;23337;52.212;9.926;2023-12-20T11:16:02;8.30;;;3.97;;
37483;SDS011;23337;52.212;9.926;2023-12-20T11:18:28;11.60;;;4.60;;
37483;SDS011;23337;52.212;9.926;2023-12-20T11:20:55;15.80;;;5.40;;
37483;SDS011;23337;52.212;9.926;2023-12-20T11:23:26;10.87;;;5.27;;
37483;SDS011;23337;52.212;9.926;2023-12-20T11:25:52;11.73;;;5.20;;
37483;SDS011;23337;52.212;9.926;2023-12-20T11:28:22;9.53;;;4.93;;
37483;SDS011;23337;52.212;9.926;2023-12-20T11:30:52;12.43;;;4.20;;
37483;SDS011;23337;52.212;9.926;2023-12-20T11:33:24;6.30;;;4.17;;
37483;SDS011;23337;52.212;9.926;2023-12-20T11:35:51;16.70;;;5.30;;
37483;SDS011;23337;52.212;9.926;2023-12-20T11:38:19;10.27;;;4.80;;
37483;SDS011;23337;52.212;9.926;2023-12-20T11:40:45;9.20;;;4.53;;
37483;SDS011;23337;52.212;9.926;2023-12-20T11:43:13;11.50;;;5.17;;
37483;SDS011;23337;52.212;9.926;2023-12-20T11:45:54;5.40;;;3.53;;
37483;SDS011;23337;52.212;9.926;2023-12-20T11:48:20;14.93;;;5.30;;
37483;SDS011;23337;52.212;9.926;2023-12-20T11:50:47;10.57;;;4.50;;
37483;SDS011;23337;52.212;9.926;2023-12-20T11:53:13;12.87;;;3.57;;
37483;SDS011;23337;52.212;9.926;2023-12-20T11:55:39;9.50;;;4.77;;
37483;SDS011;23337;52.212;9.926;2023-12-20T11:58:05;7.63;;;3.60;;
37483;SDS011;23337;52.212;9.926;2023-12-20T12:00:31;12.97;;;3.63;;
37483;SDS011;23337;52.212;9.926;2023-12-20T12:02:58;6.40;;;4.20;;
37483;SDS011;23337;52.212;9.926;2023-12-20T12:05:24;15.87;;;3.93;;
37483;SDS011;23337;52.212;9.926;2023-12-20T12:07:50;8.30;;;2.80;;
37483;SDS011;23337;52.212;9.926;2023-12-20T12:10:16;9.00;;;2.97;;
37483;SDS011;23337;52.212;9.926;2023-12-20T12:12:42;2.70;;;0.73;;
37483;SDS011;23337;52.212;9.926;2023-12-20T12:15:08;2.17;;;0.60;;
37483;SDS011;23337;52.212;9.926;2023-12-20T12:17:35;1.27;;;0.50;;
37483;SDS011;23337;52.212;9.926;2023-12-20T12:20:01;1.60;;;0.37;;
37483;SDS011;23337;52.212;9.926;2023-12-20T12:22:28;3.57;;;0.90;;
37483;SDS011;23337;52.212;9.926;2023-12-20T12:24:54;2.47;;;1.13;;
37483;SDS011;23337;52.212;9.926;2023-12-20T12:27:20;1.83;;;0.50;;
37483;SDS011;23337;52.212;9.926;2023-12-20T12:30:04;0.50;;;0.30;;
37483;SDS011;23337;52.212;9.926;2023-12-20T12:32:34;3.23;;;0.63;;
37483;SDS011;23337;52.212;9.926;2023-12-20T12:35:02;3.63;;;0.80;;
37483;SDS011;23337;52.212;9.926;2023-12-20T12:37:28;3.50;;;0.67;;
37483;SDS011;23337;52.212;9.926;2023-12-20T12:39:54;2.17;;;0.40;;
37483;SDS011;23337;52.212;9.926;2023-12-20T12:42:20;4.53;;;1.17;;
37483;SDS011;23337;52.212;9.926;2023-12-20T12:44:47;4.20;;;1.00;;
37483;SDS011;23337;52.212;9.926;2023-12-20T12:47:13;1.90;;;0.83;;
37483;SDS011;23337;52.212;9.926;2023-12-20T12:49:40;2.07;;;0.60;;
37483;SDS011;23337;52.212;9.926;2023-12-20T12:52:06;3.77;;;0.80;;
37483;SDS011;23337;52.212;9.926;2023-12-20T12:54:32;1.60;;;0.87;;
37483;SDS011;23337;52.212;9.926;2023-12-20T12:56:58;2.37;;;0.60;;
37483;SDS011;23337;52.212;9.926;2023-12-20T12:59:24;3.73;;;1.57;;
37483;SDS011;23337;52.212;9.926;2023-12-20T13:01:50;2.93;;;0.90;;
37483;SDS011;23337;52.212;9.926;2023-12-20T13:04:16;4.33;;;0.77;;
37483;SDS011;23337;52.212;9.926;2023-12-20T13:06:42;2.67;;;0.93;;
37483;SDS011;23337;52.212;9.926;2023-12-20T13:09:08;3.40;;;1.80;;
37483;SDS011;23337;52.212;9.926;2023-12-20T13:11:37;5.27;;;1.20;;
37483;SDS011;23337;52.212;9.926;2023-12-20T13:14:03;3.80;;;1.80;;
37483;SDS011;23337;52.212;9.926;2023-12-20T13:16:29;3.47;;;0.80;;
37483;SDS011;23337;52.212;9.926;2023-12-20T13:18:55;3.10;;;1.20;;
37483;SDS011;23337;52.212;9.926;2023-12-20T13:21:21;2.60;;;1.33;;
37483;SDS011;23337;52.212;9.926;2023-12-20T13:23:47;2.27;;;1.00;;
37483;SDS011;23337;52.212;9.926;2023-12-20T13:26:14;1.47;;;1.00;;
37483;SDS011;23337;52.212;9.926;2023-12-20T13:28:40;3.30;;;1.10;;
37483;SDS011;23337;52.212;9.926;2023-12-20T13:31:05;0.97;;;0.40;;
37483;SDS011;23337;52.212;9.926;2023-12-20T13:33:31;1.37;;;0.20;;
37483;SDS011;23337;52.212;9.926;2023-12-20T13:35:57;1.57;;;0.73;;
37483;SDS011;23337;52.212;9.926;2023-12-20T13:38:24;3.53;;;0.63;;
37483;SDS011;23337;52.212;9.926;2023-12-20T13:40:50;2.70;;;0.63;;
37483;SDS011;23337;52.212;9.926;2023-12-20T13:43:16;1.10;;;0.27;;
37483;SDS011;23337;52.212;9.926;2023-12-20T13:45:45;2.10;;;0.40;;
37483;SDS011;23337;52.212;9.926;2023-12-20T13:48:11;2.80;;;0.70;;
37483;SDS011;23337;52.212;9.926;2023-12-20T13:50:38;3.80;;;0.40;;
37483;SDS011;23337;52.212;9.926;2023-12-20T13:53:04;1.90;;;0.33;;
37483;SDS011;23337;52.212;9.926;2023-12-20T13:55:30;1.10;;;0.40;;
37483;SDS011;23337;52.212;9.926;2023-12-20T13:57:56;2.97;;;0.67;;
37483;SDS011;23337;52.212;9.926;2023-12-20T14:00:22;0.57;;;0.30;;
37483;SDS011;23337;52.212;9.926;2023-12-20T14:02:48;3.53;;;0.50;;
37483;SDS011;23337;52.212;9.926;2023-12-20T14:05:14;1.90;;;0.67;;
37483;SDS011;23337;52.212;9.926;2023-12-20T14:07:42;1.83;;;0.70;;
37483;SDS011;23337;52.212;9.926;2023-12-20T14:10:09;1.43;;;0.60;;
37483;SDS011;23337;52.212;9.926;2023-12-20T14:12:35;2.43;;;0.60;;
37483;SDS011;23337;52.212;9.926;2023-12-20T14:15:03;4.33;;;1.00;;
37483;SDS011;23337;52.212;9.926;2023-12-20T14:17:29;3.00;;;0.60;;
37483;SDS011;23337;52.212;9.926;2023-12-20T14:19:56;3.90;;;1.07;;
37483;SDS011;23337;52.212;9.926;2023-12-20T14:22:22;3.73;;;0.70;;
37483;SDS011;23337;52.212;9.926;2023-12-20T14:24:50;1.47;;;0.77;;
37483;SDS011;23337;52.212;9.926;2023-12-20T14:27:16;3.63;;;0.90;;
37483;SDS011;23337;52.212;9.926;2023-12-20T14:29:42;5.10;;;1.23;;
37483;SDS011;23337;52.212;9.926;2023-12-20T14:32:08;5.53;;;1.03;;
37483;SDS011;23337;52.212;9.926;2023-12-20T14:34:34;5.33;;;1.10;;
37483;SDS011;23337;52.212;9.926;2023-12-20T14:36:59;5.87;;;1.40;;
37483;SDS011;23337;52.212;9.926;2023-12-20T14:39:25;2.70;;;1.23;;
37483;SDS011;23337;52.212;9.926;2023-12-20T14:41:51;6.30;;;1.90;;
37483;SDS011;23337;52.212;9.926;2023-12-20T14:44:17;4.67;;;2.37;;